weather.gov     
National Weather Service

Terminal Aerodrome Forecast
NWS Homepage
This page is being discontinued on March 12, 2014.
The same data is available at this site. Please update your bookmarks.
Thank you, and we apologize for the inconvenience.
Please send an email to SR-SRH.Webmaster@noaa.gov with any concerns.


Current Version
Previous Version:    01  02  03  04  05  06  07  08  09  10  11  12  13  14  15  16  17  18  19  20  21  22  23  24  25  26  27  
[Printable]
863
FTUS41 KALY 212300
TAFPOU
TAF
KPOU 212320Z 2200/2224 16005KT 5SM -SHRA BR SCT020 BKN035
      TEMPO 2200/2203 2SM -TSRA BR BKN011CB OVC020
     FM220300 15003KT 5SM BR BKN012 OVC020
      TEMPO 2203/2206 2SM -SHRA BR BKN008 OVC012
     FM220600 VRB03KT 4SM BR VCSH OVC008
     FM221400 16008KT P6SM VCSH BKN012 BKN025=


U.S. Dept. of Commerce
NOAA National Weather Service
1325 East West Highway
Silver Spring, MD 20910
E-mail: w-nws.webmaster@noaa.gov
Page last modified: May 16, 2007
NATIONAL WEATHER SERVICE: for Safety, for Work, for Fun - FOR LIFE